Time,TemperatureF,DewpointF,PressureIn,WindDirection,WindDirectionDegrees,WindSpeedMPH,WindSpeedGustMPH,Humidity,HourlyPrecipIn,Conditions,Clouds,dailyrainin,SolarRadiationWatts/m^2,SoftwareType,DateUTC
2013-02-17 00:00:00,17.5,9.7,30.03,WNW,295,7.0,18.0,71,0.00,,---,0.01,0.00,VWS V14.01,2013-02-17 05:00:00,
2013-02-17 00:05:00,17.3,9.5,30.03,West,279,10.0,13.0,71,0.00,,---,0.00,0.00,VWS V14.01,2013-02-17 05:05:00,
2013-02-17 00:10:00,17.1,9.6,30.03,NW,307,3.0,16.0,72,0.00,,---,0.00,0.00,VWS V14.01,2013-02-17 05:10:00,
2013-02-17 00:15:00,17.0,9.6,30.03,WNW,286,5.0,16.0,72,0.00,,---,0.00,0.00,VWS V14.01,2013-02-17 05:15:00,
2013-02-17 00:20:00,16.8,9.7,30.03,WNW,298,1.0,16.0,73,0.00,,---,0.00,0.00,VWS V14.01,2013-02-17 05:20:00,
2013-02-17 00:25:00,16.7,9.6,30.03,WNW,298,4.0,16.0,73,0.00,,---,0.00,0.00,VWS V14.01,2013-02-17 05:25:00,
2013-02-17 00:30:00,16.5,9.4,30.03,NW,309,5.0,7.0,73,0.00,,---,0.00,0.00,VWS V14.01,2013-02-17 05:30:00,
2013-02-17 00:36:00,16.4,9.3,30.03,NW,309,7.0,10.0,73,0.00,,---,0.00,0.00,VWS V14.01,2013-02-17 05:36:00,
2013-02-17 00:41:00,16.3,8.9,30.03,WNW,296,3.0,13.0,72,0.00,,---,0.00,0.00,VWS V14.01,2013-02-17 05:41:00,
2013-02-17 00:46:00,16.3,8.9,30.03,WNW,296,3.0,13.0,72,0.00,,---,0.00,0.00,VWS V14.01,2013-02-17 05:46:00,
2013-02-17 00:51:00,16.2,8.8,30.03,WNW,291,5.0,13.0,72,0.00,,---,0.00,0.00,VWS V14.01,2013-02-17 05:51:00,
2013-02-17 00:56:00,16.1,8.7,30.03,WNW,292,3.0,13.0,72,0.00,,---,0.00,0.00,VWS V14.01,2013-02-17 05:56:00,
2013-02-17 01:00:00,15.2,6.9,30.04,West,267,2.0,10.0,69,0.00,,---,0.00,0.00,VWS V14.01,2013-02-17 06:00:00,
2013-02-17 01:01:00,16.2,8.8,30.03,WNW,282,6.0,6.0,72,0.00,,---,0.00,0.00,VWS V14.01,2013-02-17 06:01:00,
2013-02-17 01:06:00,16.2,8.5,30.04,WNW,286,3.0,9.0,71,0.00,,---,0.00,0.00,VWS V14.01,2013-02-17 06:06:00,
2013-02-17 01:11:00,16.2,8.1,30.03,WNW,303,4.0,9.0,70,0.00,,---,0.00,0.00,VWS V14.01,2013-02-17 06:11:00,
2013-02-17 01:16:00,16.2,8.1,30.03,West,272,6.0,9.0,70,0.00,,---,0.00,0.00,VWS V14.01,2013-02-17 06:16:00,
2013-02-17 01:21:00,16.1,8.1,30.03,West,277,3.0,9.0,70,0.00,,---,0.00,0.00,VWS V14.01,2013-02-17 06:21:00,
2013-02-17 01:26:00,16.0,7.6,30.04,WNW,282,2.0,9.0,69,0.00,,---,0.00,0.00,VWS V14.01,2013-02-17 06:26:00,
2013-02-17 01:30:00,15.2,7.5,30.04,West,276,2.0,11.0,71,0.00,,---,0.00,0.00,VWS V14.01,2013-02-17 06:30:00,
2013-02-17 01:31:00,15.9,7.5,30.04,West,269,2.0,3.0,69,0.00,,---,0.00,0.00,VWS V14.01,2013-02-17 06:31:00,
2013-02-17 01:36:00,15.7,7.3,30.04,West,272,4.0,7.0,69,0.00,,---,0.00,0.00,VWS V14.01,2013-02-17 06:36:00,
2013-02-17 01:41:00,15.5,7.2,30.04,West,281,3.0,7.0,69,0.00,,---,0.00,0.00,VWS V14.01,2013-02-17 06:41:00,
2013-02-17 01:46:00,15.4,7.1,30.04,West,271,7.0,10.0,69,0.00,,---,0.00,0.00,VWS V14.01,2013-02-17 06:46:00,
2013-02-17 01:51:00,15.4,7.1,30.04,West,267,4.0,10.0,69,0.00,,---,0.00,0.00,VWS V14.01,2013-02-17 06:51:00,
2013-02-17 01:56:00,15.3,7.0,30.03,West,268,3.0,10.0,69,0.00,,---,0.00,0.00,VWS V14.01,2013-02-17 06:56:00,
2013-02-17 02:00:00,16.0,9.5,30.04,West,276,8.0,14.0,75,0.00,,---,0.00,0.00,VWS V14.01,2013-02-17 07:00:00,
2013-02-17 02:01:00,15.2,6.9,30.04,West,267,3.0,5.0,69,0.00,,---,0.00,0.00,VWS V14.01,2013-02-17 07:01:00,
2013-02-17 02:06:00,15.1,6.8,30.04,West,272,5.0,10.0,69,0.00,,---,0.00,0.00,VWS V14.01,2013-02-17 07:06:00,
2013-02-17 02:11:00,15.0,6.7,30.04,West,272,6.0,11.0,69,0.00,,---,0.00,0.00,VWS V14.01,2013-02-17 07:11:00,
2013-02-17 02:16:00,15.0,6.7,30.04,WNW,289,3.0,11.0,69,0.00,,---,0.00,0.00,VWS V14.01,2013-02-17 07:16:00,
2013-02-17 02:21:00,15.0,6.7,30.04,West,267,4.0,11.0,69,0.00,,---,0.00,0.00,VWS V14.01,2013-02-17 07:21:00,
2013-02-17 02:26:00,15.1,7.1,30.04,West,272,5.0,11.0,70,0.00,,---,0.00,0.00,VWS V14.01,2013-02-17 07:26:00,
2013-02-17 02:30:00,15.7,9.5,30.05,West,271,3.0,13.0,76,0.00,,---,0.00,0.00,VWS V14.01,2013-02-17 07:30:00,
2013-02-17 02:31:00,15.3,7.6,30.04,West,265,5.0,6.0,71,0.00,,---,0.00,0.00,VWS V14.01,2013-02-17 07:31:00,
2013-02-17 02:36:00,15.4,7.7,30.04,WNW,300,7.0,10.0,71,0.00,,---,0.00,0.00,VWS V14.01,2013-02-17 07:36:00,
2013-02-17 02:41:00,15.6,7.9,30.04,WNW,295,4.0,12.0,71,0.00,,---,0.00,0.00,VWS V14.01,2013-02-17 07:41:00,
2013-02-17 02:46:00,15.7,8.6,30.04,West,268,9.0,14.0,73,0.00,,---,0.00,0.00,VWS V14.01,2013-02-17 07:46:00,
2013-02-17 02:51:00,15.8,8.7,30.04,WNW,284,2.0,14.0,73,0.00,,---,0.00,0.00,VWS V14.01,2013-02-17 07:51:00,
2013-02-17 02:56:00,15.9,9.1,30.04,WNW,292,6.0,14.0,74,0.00,,---,0.00,0.00,VWS V14.01,2013-02-17 07:56:00,
2013-02-17 03:00:00,15.5,9.9,30.05,WNW,285,4.0,15.0,78,0.00,,---,0.00,0.00,VWS V14.01,2013-02-17 08:00:00,
2013-02-17 03:01:00,16.0,9.5,30.04,West,274,9.0,11.0,75,0.00,,---,0.00,0.00,VWS V14.01,2013-02-17 08:01:00,
2013-02-17 03:06:00,15.9,9.4,30.04,WSW,253,8.0,13.0,75,0.00,,---,0.00,0.00,VWS V14.01,2013-02-17 08:06:00,
2013-02-17 03:11:00,15.9,9.4,30.04,WSW,248,6.0,13.0,75,0.00,,---,0.00,0.00,VWS V14.01,2013-02-17 08:11:00,
2013-02-17 03:16:00,15.8,9.3,30.04,West,264,6.0,13.0,75,0.00,,---,0.00,0.00,VWS V14.01,2013-02-17 08:16:00,
2013-02-17 03:21:00,15.8,9.6,30.05,West,277,5.0,13.0,76,0.00,,---,0.00,0.00,VWS V14.01,2013-02-17 08:21:00,
2013-02-17 03:27:00,15.8,9.6,30.05,WNW,291,5.0,13.0,76,0.00,,---,0.00,0.00,VWS V14.01,2013-02-17 08:27:00,
2013-02-17 03:30:00,15.3,10.0,30.06,WNW,296,6.0,16.0,79,0.00,,---,0.00,0.00,VWS V14.01,2013-02-17 08:30:00,
2013-02-17 03:32:00,15.7,9.5,30.05,West,270,4.0,10.0,76,0.00,,---,0.00,0.00,VWS V14.01,2013-02-17 08:32:00,
2013-02-17 03:37:00,15.7,9.5,30.05,WNW,288,5.0,15.0,76,0.00,,---,0.00,0.00,VWS V14.01,2013-02-17 08:37:00,
2013-02-17 03:42:00,15.6,9.4,30.05,West,273,4.0,15.0,76,0.00,,---,0.00,0.00,VWS V14.01,2013-02-17 08:42:00,
2013-02-17 03:47:00,15.5,9.3,30.05,WNW,285,5.0,15.0,76,0.00,,---,0.00,0.00,VWS V14.01,2013-02-17 08:47:00,
2013-02-17 03:52:00,15.5,9.6,30.05,West,279,4.0,15.0,77,0.00,,---,0.00,0.00,VWS V14.01,2013-02-17 08:52:00,
2013-02-17 03:57:00,15.5,9.6,30.05,WNW,300,4.0,15.0,77,0.00,,---,0.00,0.00,VWS V14.01,2013-02-17 08:57:00,
2013-02-17 04:00:00,14.8,9.5,30.06,WNW,301,4.0,13.0,79,0.00,,---,0.00,0.00,VWS V14.01,2013-02-17 09:00:00,
2013-02-17 04:02:00,15.5,9.9,30.05,West,277,4.0,11.0,78,0.00,,---,0.00,0.00,VWS V14.01,2013-02-17 09:02:00,
2013-02-17 04:07:00,15.6,10.0,30.05,West,275,6.0,14.0,78,0.00,,---,0.00,0.00,VWS V14.01,2013-02-17 09:07:00,
2013-02-17 04:12:00,15.5,9.9,30.05,NW,304,6.0,14.0,78,0.00,,---,0.00,0.00,VWS V14.01,2013-02-17 09:12:00,
2013-02-17 04:17:00,15.5,9.9,30.05,WNW,292,7.0,14.0,78,0.00,,---,0.00,0.00,VWS V14.01,2013-02-17 09:17:00,
2013-02-17 04:22:00,15.4,9.8,30.06,West,275,6.0,16.0,78,0.00,,---,0.00,0.00,VWS V14.01,2013-02-17 09:22:00,
2013-02-17 04:27:00,15.4,9.8,30.06,WNW,282,9.0,16.0,78,0.00,,---,0.00,0.00,VWS V14.01,2013-02-17 09:27:00,
2013-02-17 04:30:00,14.5,9.5,30.07,WNW,294,3.0,13.0,80,0.00,,---,0.00,0.00,VWS V14.01,2013-02-17 09:30:00,
2013-02-17 04:32:00,15.3,10.0,30.06,WNW,286,5.0,7.0,79,0.00,,---,0.00,0.00,VWS V14.01,2013-02-17 09:32:00,
2013-02-17 04:37:00,15.3,10.0,30.06,WNW,294,5.0,10.0,79,0.00,,---,0.00,0.00,VWS V14.01,2013-02-17 09:37:00,
2013-02-17 04:42:00,15.3,10.0,30.06,WNW,292,4.0,12.0,79,0.00,,---,0.00,0.00,VWS V14.01,2013-02-17 09:42:00,
2013-02-17 04:47:00,15.2,9.9,30.06,West,272,3.0,13.0,79,0.00,,---,0.00,0.00,VWS V14.01,2013-02-17 09:47:00,
2013-02-17 04:52:00,15.0,9.7,30.06,WNW,298,3.0,13.0,79,0.00,,---,0.00,0.00,VWS V14.01,2013-02-17 09:52:00,
2013-02-17 04:57:00,14.9,9.6,30.06,WNW,290,2.0,13.0,79,0.00,,---,0.00,0.00,VWS V14.01,2013-02-17 09:57:00,
2013-02-17 05:00:00,14.5,9.7,30.08,WNW,284,5.0,11.0,81,0.00,,---,0.00,0.00,VWS V14.01,2013-02-17 10:00:00,
2013-02-17 05:02:00,14.8,9.5,30.06,WNW,297,5.0,7.0,79,0.00,,---,0.00,0.00,VWS V14.01,2013-02-17 10:02:00,
2013-02-17 05:07:00,14.6,9.6,30.06,WNW,292,5.0,13.0,80,0.00,,---,0.00,0.00,VWS V14.01,2013-02-17 10:07:00,
2013-02-17 05:12:00,14.6,9.6,30.06,WNW,302,9.0,13.0,80,0.00,,---,0.00,0.00,VWS V14.01,2013-02-17 10:12:00,
2013-02-17 05:17:00,14.5,9.5,30.06,West,275,6.0,13.0,80,0.00,,---,0.00,0.00,VWS V14.01,2013-02-17 10:17:00,
2013-02-17 05:22:00,14.5,9.5,30.07,NW,304,4.0,13.0,80,0.00,,---,0.00,0.00,VWS V14.01,2013-02-17 10:22:00,
2013-02-17 05:27:00,14.5,9.5,30.07,WNW,302,5.0,13.0,80,0.00,,---,0.00,0.00,VWS V14.01,2013-02-17 10:27:00,
2013-02-17 05:30:00,14.6,9.8,30.09,WNW,293,1.0,13.0,81,0.00,,---,0.00,0.00,VWS V14.01,2013-02-17 10:30:00,
2013-02-17 05:32:00,14.5,9.5,30.07,WNW,294,3.0,4.0,80,0.00,,---,0.00,0.00,VWS V14.01,2013-02-17 10:32:00,
2013-02-17 05:37:00,14.5,9.7,30.07,WNW,296,3.0,8.0,81,0.00,,---,0.00,0.00,VWS V14.01,2013-02-17 10:37:00,
2013-02-17 05:42:00,14.5,9.7,30.07,WNW,297,3.0,9.0,81,0.00,,---,0.00,0.00,VWS V14.01,2013-02-17 10:42:00,
2013-02-17 05:47:00,14.5,9.7,30.07,WNW,303,3.0,9.0,81,0.00,,---,0.00,0.00,VWS V14.01,2013-02-17 10:47:00,
2013-02-17 05:52:00,14.5,9.7,30.08,WNW,298,1.0,9.0,81,0.00,,---,0.00,0.00,VWS V14.01,2013-02-17 10:52:00,
2013-02-17 05:57:00,14.5,9.7,30.08,West,274,5.0,11.0,81,0.00,,---,0.00,0.00,VWS V14.01,2013-02-17 10:57:00,
2013-02-17 06:00:00,14.6,10.1,30.10,WNW,291,5.0,13.0,82,0.00,,---,0.00,0.00,VWS V14.01,2013-02-17 11:00:00,
2013-02-17 06:02:00,14.5,9.7,30.08,WNW,293,3.0,5.0,81,0.00,,---,0.00,0.00,VWS V14.01,2013-02-17 11:02:00,
2013-02-17 06:07:00,14.6,9.8,30.08,West,273,3.0,11.0,81,0.00,,---,0.00,0.00,VWS V14.01,2013-02-17 11:07:00,
2013-02-17 06:12:00,14.6,9.8,30.08,West,271,5.0,11.0,81,0.00,,---,0.00,0.00,VWS V14.01,2013-02-17 11:12:00,
2013-02-17 06:17:00,14.7,9.9,30.08,NW,313,5.0,11.0,81,0.00,,---,0.00,0.00,VWS V14.01,2013-02-17 11:17:00,
2013-02-17 06:22:00,14.7,9.9,30.09,NW,305,5.0,13.0,81,0.00,,---,0.00,0.00,VWS V14.01,2013-02-17 11:22:00,
2013-02-17 06:27:00,14.6,9.8,30.09,WNW,287,2.0,13.0,81,0.00,,---,0.00,0.00,VWS V14.01,2013-02-17 11:27:00,
2013-02-17 06:30:00,14.7,10.2,30.11,West,266,9.0,13.0,82,0.00,,---,0.00,12.00,VWS V14.01,2013-02-17 11:30:00,
2013-02-17 06:32:00,14.6,9.8,30.09,West,273,7.0,12.0,81,0.00,,---,0.00,0.00,VWS V14.01,2013-02-17 11:32:00,
2013-02-17 06:37:00,14.6,9.8,30.09,WNW,293,2.0,12.0,81,0.00,,---,0.00,0.00,VWS V14.01,2013-02-17 11:37:00,
2013-02-17 06:42:00,14.6,9.8,30.09,WNW,284,5.0,12.0,81,0.00,,---,0.00,0.00,VWS V14.01,2013-02-17 11:42:00,
2013-02-17 06:47:00,14.6,9.8,30.10,WNW,289,4.0,13.0,81,0.00,,---,0.00,0.00,VWS V14.01,2013-02-17 11:47:00,
2013-02-17 06:52:00,14.6,10.1,30.10,NW,308,4.0,13.0,82,0.00,,---,0.00,0.00,VWS V14.01,2013-02-17 11:52:00,
2013-02-17 06:57:00,14.6,10.1,30.10,WNW,302,4.0,13.0,82,0.00,,---,0.00,0.00,VWS V14.01,2013-02-17 11:57:00,
2013-02-17 07:00:00,14.6,10.1,30.12,NW,315,6.0,14.0,82,0.00,,---,0.00,28.00,VWS V14.01,2013-02-17 12:00:00,
2013-02-17 07:02:00,14.6,10.1,30.10,WNW,300,5.0,7.0,82,0.00,,---,0.00,0.00,VWS V14.01,2013-02-17 12:02:00,
2013-02-17 07:07:00,14.7,10.2,30.10,West,272,6.0,11.0,82,0.00,,---,0.00,0.00,VWS V14.01,2013-02-17 12:07:00,
2013-02-17 07:12:00,14.6,10.1,30.10,WNW,289,7.0,11.0,82,0.00,,---,0.00,0.00,VWS V14.01,2013-02-17 12:12:00,
2013-02-17 07:17:00,14.6,10.1,30.10,WNW,288,3.0,13.0,82,0.00,,---,0.00,0.00,VWS V14.01,2013-02-17 12:17:00,
2013-02-17 07:22:00,14.6,10.1,30.11,WNW,288,3.0,13.0,82,0.00,,---,0.00,7.00,VWS V14.01,2013-02-17 12:22:00,
2013-02-17 07:27:00,14.7,10.2,30.11,NW,313,10.0,13.0,82,0.00,,---,0.00,12.00,VWS V14.01,2013-02-17 12:27:00,
2013-02-17 07:30:00,15.4,11.2,30.13,WNW,283,3.0,12.0,83,0.00,,---,0.00,116.00,VWS V14.01,2013-02-17 12:30:00,
2013-02-17 07:32:00,14.8,10.3,30.11,WNW,288,7.0,14.0,82,0.00,,---,0.00,12.00,VWS V14.01,2013-02-17 12:32:00,
2013-02-17 07:37:00,14.8,10.3,30.11,West,266,7.0,14.0,82,0.00,,---,0.00,16.00,VWS V14.01,2013-02-17 12:37:00,
2013-02-17 07:43:00,14.8,10.3,30.11,WNW,294,5.0,14.0,82,0.00,,---,0.00,19.00,VWS V14.01,2013-02-17 12:43:00,
2013-02-17 07:48:00,14.7,10.2,30.11,West,271,11.0,14.0,82,0.00,,---,0.00,21.00,VWS V14.01,2013-02-17 12:48:00,
2013-02-17 07:53:00,14.6,10.1,30.11,West,275,3.0,14.0,82,0.00,,---,0.00,25.00,VWS V14.01,2013-02-17 12:53:00,
2013-02-17 07:58:00,14.6,10.1,30.12,NW,313,7.0,14.0,82,0.00,,---,0.00,26.00,VWS V14.01,2013-02-17 12:58:00,
2013-02-17 08:00:00,16.0,11.5,30.14,West,261,5.0,14.0,82,0.00,,---,0.00,163.00,VWS V14.01,2013-02-17 13:00:00,
2013-02-17 08:03:00,14.7,10.2,30.12,WNW,292,2.0,11.0,82,0.00,,---,0.00,30.00,VWS V14.01,2013-02-17 13:03:00,
2013-02-17 08:08:00,14.8,10.6,30.12,West,280,6.0,11.0,83,0.00,,---,0.00,32.00,VWS V14.01,2013-02-17 13:08:00,
2013-02-17 08:13:00,14.9,10.4,30.12,WNW,288,3.0,11.0,82,0.00,,---,0.00,35.00,VWS V14.01,2013-02-17 13:13:00,
2013-02-17 08:18:00,15.0,10.8,30.12,WNW,285,4.0,11.0,83,0.00,,---,0.00,54.00,VWS V14.01,2013-02-17 13:18:00,
2013-02-17 08:23:00,15.1,10.9,30.13,WNW,298,3.0,12.0,83,0.00,,---,0.00,76.00,VWS V14.01,2013-02-17 13:23:00,
2013-02-17 08:28:00,15.3,11.1,30.13,West,274,1.0,12.0,83,0.00,,---,0.00,95.00,VWS V14.01,2013-02-17 13:28:00,
2013-02-17 08:30:00,16.1,11.3,30.16,NW,317,6.0,13.0,81,0.00,,---,0.00,162.00,VWS V14.01,2013-02-17 13:30:00,
2013-02-17 08:33:00,15.5,11.3,30.13,West,261,9.0,14.0,83,0.00,,---,0.00,58.00,VWS V14.01,2013-02-17 13:33:00,
2013-02-17 08:38:00,15.5,11.0,30.14,WNW,288,6.0,14.0,82,0.00,,---,0.00,130.00,VWS V14.01,2013-02-17 13:38:00,
2013-02-17 08:43:00,15.7,11.2,30.14,West,281,11.0,14.0,82,0.00,,---,0.00,135.00,VWS V14.01,2013-02-17 13:43:00,
2013-02-17 08:48:00,15.9,11.4,30.14,WNW,302,5.0,14.0,82,0.00,,---,0.00,114.00,VWS V14.01,2013-02-17 13:48:00,
2013-02-17 08:53:00,16.0,11.5,30.14,NW,308,4.0,14.0,82,0.00,,---,0.00,114.00,VWS V14.01,2013-02-17 13:53:00,
2013-02-17 08:58:00,16.0,11.5,30.14,WNW,292,3.0,14.0,82,0.00,,---,0.00,141.00,VWS V14.01,2013-02-17 13:58:00,
2013-02-17 09:00:00,16.8,11.7,30.17,WNW,291,4.0,14.0,80,0.00,,---,0.00,554.00,VWS V14.01,2013-02-17 14:00:00,
2013-02-17 09:03:00,16.0,11.5,30.15,NW,304,6.0,7.0,82,0.00,,---,0.00,158.00,VWS V14.01,2013-02-17 14:03:00,
2013-02-17 09:08:00,16.0,11.5,30.15,NNW,346,5.0,11.0,82,0.00,,---,0.00,181.00,VWS V14.01,2013-02-17 14:08:00,
2013-02-17 09:13:00,16.0,11.2,30.15,NW,323,10.0,13.0,81,0.00,,---,0.00,167.00,VWS V14.01,2013-02-17 14:13:00,
2013-02-17 09:18:00,16.0,11.2,30.16,NNW,331,5.0,13.0,81,0.00,,---,0.00,165.00,VWS V14.01,2013-02-17 14:18:00,
2013-02-17 09:23:00,16.0,11.2,30.16,West,278,4.0,13.0,81,0.00,,---,0.00,156.00,VWS V14.01,2013-02-17 14:23:00,
2013-02-17 09:28:00,16.2,11.7,30.16,NW,308,12.0,13.0,82,0.00,,---,0.00,151.00,VWS V14.01,2013-02-17 14:28:00,
2013-02-17 09:30:00,17.7,12.3,30.18,WNW,301,7.0,13.0,79,0.00,,---,0.00,619.00,VWS V14.01,2013-02-17 14:30:00,
2013-02-17 09:33:00,16.1,11.3,30.16,NW,319,3.0,12.0,81,0.00,,---,0.00,146.00,VWS V14.01,2013-02-17 14:33:00,
2013-02-17 09:38:00,16.2,11.4,30.16,WNW,298,11.0,12.0,81,0.00,,---,0.00,172.00,VWS V14.01,2013-02-17 14:38:00,
2013-02-17 09:43:00,16.1,11.0,30.16,WNW,286,5.0,12.0,80,0.00,,---,0.00,394.00,VWS V14.01,2013-02-17 14:43:00,
2013-02-17 09:48:00,16.3,11.2,30.16,NW,325,11.0,13.0,80,0.00,,---,0.00,381.00,VWS V14.01,2013-02-17 14:48:00,
2013-02-17 09:53:00,16.4,11.3,30.17,NW,309,7.0,13.0,80,0.00,,---,0.00,220.00,VWS V14.01,2013-02-17 14:53:00,
2013-02-17 09:58:00,16.6,11.5,30.17,West,264,6.0,14.0,80,0.00,,---,0.00,527.00,VWS V14.01,2013-02-17 14:58:00,
2013-02-17 10:00:00,18.4,12.7,30.18,West,271,7.0,14.0,78,0.00,,---,0.00,221.00,VWS V14.01,2013-02-17 15:00:00,
2013-02-17 10:03:00,17.1,12.3,30.17,WNW,294,4.0,12.0,81,0.00,,---,0.00,229.00,VWS V14.01,2013-02-17 15:03:00,
2013-02-17 10:08:00,17.3,12.2,30.17,West,269,9.0,13.0,80,0.00,,---,0.00,232.00,VWS V14.01,2013-02-17 15:08:00,
2013-02-17 10:13:00,17.3,11.9,30.17,WNW,300,4.0,13.0,79,0.00,,---,0.00,193.00,VWS V14.01,2013-02-17 15:13:00,
2013-02-17 10:18:00,17.5,12.1,30.17,West,266,6.0,13.0,79,0.00,,---,0.00,621.00,VWS V14.01,2013-02-17 15:18:00,
2013-02-17 10:23:00,17.7,12.3,30.18,West,271,11.0,13.0,79,0.00,,---,0.00,200.00,VWS V14.01,2013-02-17 15:23:00,
2013-02-17 10:28:00,17.6,12.2,30.18,West,262,5.0,13.0,79,0.00,,---,0.00,621.00,VWS V14.01,2013-02-17 15:28:00,
2013-02-17 10:30:00,19.2,13.2,30.19,WNW,297,9.0,15.0,77,0.00,,---,0.00,773.00,VWS V14.01,2013-02-17 15:30:00,
2013-02-17 10:33:00,17.9,12.2,30.18,West,269,7.0,11.0,78,0.00,,---,0.00,642.00,VWS V14.01,2013-02-17 15:33:00,
2013-02-17 10:38:00,17.9,12.2,30.18,West,271,10.0,11.0,78,0.00,,---,0.00,619.00,VWS V14.01,2013-02-17 15:38:00,
2013-02-17 10:43:00,18.1,12.4,30.18,WSW,257,7.0,12.0,78,0.00,,---,0.00,202.00,VWS V14.01,2013-02-17 15:43:00,
2013-02-17 10:48:00,18.0,12.0,30.18,WNW,301,6.0,14.0,77,0.00,,---,0.00,647.00,VWS V14.01,2013-02-17 15:48:00,
2013-02-17 10:54:00,18.1,12.1,30.18,West,279,4.0,14.0,77,0.00,,---,0.00,548.00,VWS V14.01,2013-02-17 15:54:00,
2013-02-17 10:59:00,18.3,12.6,30.18,WNW,288,6.0,14.0,78,0.00,,---,0.00,221.00,VWS V14.01,2013-02-17 15:59:00,
2013-02-17 11:00:00,19.9,13.6,30.19,West,281,5.0,13.0,76,0.00,,---,0.00,367.00,VWS V14.01,2013-02-17 16:00:00,
2013-02-17 11:04:00,18.4,12.4,30.19,WNW,298,2.0,8.0,77,0.00,,---,0.00,768.00,VWS V14.01,2013-02-17 16:04:00,
2013-02-17 11:09:00,18.5,12.2,30.19,NNW,338,6.0,15.0,76,0.00,,---,0.00,149.00,VWS V14.01,2013-02-17 16:09:00,
2013-02-17 11:14:00,18.5,12.5,30.19,WNW,296,10.0,15.0,77,0.00,,---,0.00,714.00,VWS V14.01,2013-02-17 16:14:00,
2013-02-17 11:19:00,19.0,13.3,30.19,NW,315,12.0,15.0,78,0.00,,---,0.00,780.00,VWS V14.01,2013-02-17 16:19:00,
2013-02-17 11:24:00,19.3,13.3,30.19,WNW,300,5.0,15.0,77,0.00,,---,0.00,188.00,VWS V14.01,2013-02-17 16:24:00,
2013-02-17 11:29:00,19.1,12.8,30.19,WNW,285,5.0,15.0,76,0.00,,---,0.00,724.00,VWS V14.01,2013-02-17 16:29:00,
2013-02-17 11:30:00,20.8,13.2,30.19,WNW,292,9.0,13.0,72,0.00,,---,0.00,311.00,VWS V14.01,2013-02-17 16:30:00,
2013-02-17 11:34:00,19.3,13.0,30.19,NW,319,9.0,10.0,76,0.00,,---,0.00,153.00,VWS V14.01,2013-02-17 16:34:00,
2013-02-17 11:39:00,19.0,12.4,30.19,West,277,8.0,11.0,75,0.00,,---,0.00,257.00,VWS V14.01,2013-02-17 16:39:00,
2013-02-17 11:44:00,19.1,12.8,30.19,West,270,3.0,11.0,76,0.00,,---,0.00,338.00,VWS V14.01,2013-02-17 16:44:00,
2013-02-17 11:49:00,19.5,13.5,30.19,WNW,292,7.0,11.0,77,0.00,,---,0.00,171.00,VWS V14.01,2013-02-17 16:49:00,
2013-02-17 11:54:00,19.6,13.3,30.19,WSW,252,8.0,12.0,76,0.00,,---,0.00,248.00,VWS V14.01,2013-02-17 16:54:00,
2013-02-17 11:59:00,19.8,13.8,30.19,WSW,247,9.0,12.0,77,0.00,,---,0.00,367.00,VWS V14.01,2013-02-17 16:59:00,
2013-02-17 12:00:00,20.2,12.3,30.18,WNW,303,6.0,14.0,71,0.00,,---,0.00,156.00,VWS V14.01,2013-02-17 17:00:00,
2013-02-17 12:04:00,20.3,14.0,30.19,WNW,286,6.0,9.0,76,0.00,,---,0.00,318.00,VWS V14.01,2013-02-17 17:04:00,
2013-02-17 12:09:00,20.5,13.9,30.19,WNW,295,3.0,13.0,75,0.00,,---,0.00,276.00,VWS V14.01,2013-02-17 17:09:00,
2013-02-17 12:14:00,20.6,13.6,30.19,WNW,292,4.0,13.0,74,0.00,,---,0.00,863.00,VWS V14.01,2013-02-17 17:14:00,
2013-02-17 12:19:00,20.7,13.7,30.19,WSW,248,6.0,13.0,74,0.00,,---,0.00,909.00,VWS V14.01,2013-02-17 17:19:00,
2013-02-17 12:24:00,20.8,13.5,30.19,West,278,6.0,13.0,73,0.00,,---,0.00,227.00,VWS V14.01,2013-02-17 17:24:00,
2013-02-17 12:29:00,20.8,13.2,30.19,WNW,300,5.0,13.0,72,0.00,,---,0.00,265.00,VWS V14.01,2013-02-17 17:29:00,
2013-02-17 12:30:00,21.3,12.7,30.18,WNW,298,3.0,13.0,69,0.00,,---,0.00,160.00,VWS V14.01,2013-02-17 17:30:00,
2013-02-17 12:34:00,20.7,13.1,30.19,WNW,302,5.0,12.0,72,0.00,,---,0.00,248.00,VWS V14.01,2013-02-17 17:34:00,
2013-02-17 12:39:00,20.5,12.6,30.19,WNW,302,3.0,14.0,71,0.00,,---,0.00,322.00,VWS V14.01,2013-02-17 17:39:00,
2013-02-17 12:44:00,20.6,13.0,30.19,West,277,6.0,14.0,72,0.00,,---,0.00,239.00,VWS V14.01,2013-02-17 17:44:00,
2013-02-17 12:49:00,20.6,12.7,30.19,WNW,303,5.0,14.0,71,0.00,,---,0.00,149.00,VWS V14.01,2013-02-17 17:49:00,
2013-02-17 12:54:00,20.3,12.4,30.19,NW,314,6.0,14.0,71,0.00,,---,0.00,169.00,VWS V14.01,2013-02-17 17:54:00,
2013-02-17 12:59:00,20.2,12.3,30.18,WNW,285,9.0,14.0,71,0.00,,---,0.00,153.00,VWS V14.01,2013-02-17 17:59:00,
2013-02-17 13:00:00,21.5,11.6,30.17,NW,311,7.0,14.0,65,0.00,,---,0.00,253.00,VWS V14.01,2013-02-17 18:00:00,
2013-02-17 13:04:00,20.3,12.1,30.19,West,281,4.0,11.0,70,0.00,,---,0.00,188.00,VWS V14.01,2013-02-17 18:04:00,
2013-02-17 13:09:00,20.4,11.9,30.19,WNW,297,9.0,11.0,69,0.00,,---,0.00,267.00,VWS V14.01,2013-02-17 18:09:00,
2013-02-17 13:14:00,20.6,12.1,30.19,NW,323,7.0,13.0,69,0.00,,---,0.00,171.00,VWS V14.01,2013-02-17 18:14:00,
2013-02-17 13:19:00,20.6,12.4,30.18,NW,309,7.0,13.0,70,0.00,,---,0.00,232.00,VWS V14.01,2013-02-17 18:19:00,
2013-02-17 13:24:00,20.9,12.4,30.18,WNW,300,9.0,13.0,69,0.00,,---,0.00,831.00,VWS V14.01,2013-02-17 18:24:00,
2013-02-17 13:29:00,21.3,12.7,30.18,WNW,297,6.0,13.0,69,0.00,,---,0.00,162.00,VWS V14.01,2013-02-17 18:29:00,
2013-02-17 13:30:00,22.2,12.6,30.18,WNW,292,5.0,14.0,66,0.00,,---,0.00,290.00,VWS V14.01,2013-02-17 18:30:00,
2013-02-17 13:34:00,21.2,12.6,30.18,WNW,282,7.0,13.0,69,0.00,,---,0.00,158.00,VWS V14.01,2013-02-17 18:34:00,
2013-02-17 13:39:00,21.2,12.6,30.18,West,277,9.0,14.0,69,0.00,,---,0.00,269.00,VWS V14.01,2013-02-17 18:39:00,
2013-02-17 13:44:00,21.1,11.9,30.18,WNW,290,5.0,14.0,67,0.00,,---,0.00,195.00,VWS V14.01,2013-02-17 18:44:00,
2013-02-17 13:49:00,21.0,11.8,30.18,WNW,294,4.0,14.0,67,0.00,,---,0.00,243.00,VWS V14.01,2013-02-17 18:49:00,
2013-02-17 13:54:00,21.1,11.5,30.17,West,263,5.0,14.0,66,0.00,,---,0.00,290.00,VWS V14.01,2013-02-17 18:54:00,
2013-02-17 13:59:00,21.5,11.9,30.17,NW,307,12.0,14.0,66,0.00,,---,0.00,279.00,VWS V14.01,2013-02-17 18:59:00,
2013-02-17 14:00:00,22.8,12.8,30.17,West,275,3.0,14.0,65,0.00,,---,0.00,221.00,VWS V14.01,2013-02-17 19:00:00,
2013-02-17 14:04:00,21.5,11.6,30.17,WNW,297,8.0,11.0,65,0.00,,---,0.00,202.00,VWS V14.01,2013-02-17 19:04:00,
2013-02-17 14:09:00,21.3,11.4,30.18,NW,308,10.0,12.0,65,0.00,,---,0.00,171.00,VWS V14.01,2013-02-17 19:09:00,
2013-02-17 14:14:00,21.2,12.0,30.17,West,273,7.0,12.0,67,0.00,,---,0.00,758.00,VWS V14.01,2013-02-17 19:14:00,
2013-02-17 14:19:00,21.4,11.5,30.17,West,264,4.0,12.0,65,0.00,,---,0.00,292.00,VWS V14.01,2013-02-17 19:19:00,
2013-02-17 14:24:00,21.6,12.0,30.17,West,272,5.0,14.0,66,0.00,,---,0.00,780.00,VWS V14.01,2013-02-17 19:24:00,
2013-02-17 14:29:00,22.2,12.6,30.18,WNW,286,5.0,14.0,66,0.00,,---,0.00,812.00,VWS V14.01,2013-02-17 19:29:00,
2013-02-17 14:30:00,22.3,11.6,30.18,West,275,6.0,13.0,63,0.00,,---,0.00,179.00,VWS V14.01,2013-02-17 19:30:00,
2013-02-17 14:34:00,22.4,12.4,30.18,West,268,5.0,13.0,65,0.00,,---,0.00,236.00,VWS V14.01,2013-02-17 19:34:00,
2013-02-17 14:39:00,22.5,12.5,30.18,WSW,257,4.0,13.0,65,0.00,,---,0.00,290.00,VWS V14.01,2013-02-17 19:39:00,
2013-02-17 14:44:00,22.6,12.3,30.18,WSW,257,10.0,14.0,64,0.00,,---,0.00,833.00,VWS V14.01,2013-02-17 19:44:00,
2013-02-17 14:49:00,22.7,12.4,30.18,West,271,6.0,14.0,64,0.00,,---,0.00,276.00,VWS V14.01,2013-02-17 19:49:00,
2013-02-17 14:54:00,22.9,12.9,30.17,WNW,285,6.0,14.0,65,0.00,,---,0.00,237.00,VWS V14.01,2013-02-17 19:54:00,
2013-02-17 14:59:00,22.8,12.5,30.17,WNW,286,6.0,14.0,64,0.00,,---,0.00,236.00,VWS V14.01,2013-02-17 19:59:00,
2013-02-17 15:00:00,22.5,11.5,30.18,NW,318,6.0,14.0,62,0.00,,---,0.00,209.00,VWS V14.01,2013-02-17 20:00:00,
2013-02-17 15:04:00,22.6,12.6,30.17,NW,321,5.0,11.0,65,0.00,,---,0.00,183.00,VWS V14.01,2013-02-17 20:04:00,
2013-02-17 15:09:00,22.3,12.0,30.17,NW,306,6.0,11.0,64,0.00,,---,0.00,176.00,VWS V14.01,2013-02-17 20:09:00,
2013-02-17 15:14:00,22.1,11.8,30.18,West,275,3.0,13.0,64,0.00,,---,0.00,209.00,VWS V14.01,2013-02-17 20:14:00,
2013-02-17 15:19:00,22.1,12.1,30.18,West,272,4.0,13.0,65,0.00,,---,0.00,188.00,VWS V14.01,2013-02-17 20:19:00,
2013-02-17 15:24:00,22.2,11.9,30.18,West,261,5.0,13.0,64,0.00,,---,0.00,178.00,VWS V14.01,2013-02-17 20:24:00,
2013-02-17 15:29:00,22.2,11.5,30.18,WNW,300,6.0,13.0,63,0.00,,---,0.00,181.00,VWS V14.01,2013-02-17 20:29:00,
2013-02-17 15:30:00,22.5,11.1,30.18,WNW,294,6.0,13.0,61,0.00,,---,0.00,113.00,VWS V14.01,2013-02-17 20:30:00,
2013-02-17 15:35:00,22.3,11.3,30.17,WNW,291,7.0,10.0,62,0.00,,---,0.00,197.00,VWS V14.01,2013-02-17 20:35:00,
2013-02-17 15:40:00,22.4,11.0,30.17,West,277,2.0,12.0,61,0.00,,---,0.00,285.00,VWS V14.01,2013-02-17 20:40:00,
2013-02-17 15:45:00,22.5,11.8,30.18,NW,306,10.0,13.0,63,0.00,,---,0.00,137.00,VWS V14.01,2013-02-17 20:45:00,
2013-02-17 15:50:00,22.5,11.1,30.18,WNW,303,6.0,13.0,61,0.00,,---,0.00,135.00,VWS V14.01,2013-02-17 20:50:00,
2013-02-17 15:55:00,22.3,10.9,30.18,WNW,303,6.0,13.0,61,0.00,,---,0.00,162.00,VWS V14.01,2013-02-17 20:55:00,
2013-02-17 16:00:00,22.4,11.4,30.18,NW,306,5.0,14.0,62,0.00,,---,0.00,178.00,VWS V14.01,2013-02-17 21:00:00,
2013-02-17 16:05:00,22.5,11.5,30.18,West,265,7.0,12.0,62,0.00,,---,0.00,174.00,VWS V14.01,2013-02-17 21:05:00,
2013-02-17 16:10:00,22.5,11.5,30.18,WNW,290,4.0,13.0,62,0.00,,---,0.00,153.00,VWS V14.01,2013-02-17 21:10:00,
2013-02-17 16:15:00,22.5,11.5,30.18,WNW,296,6.0,13.0,62,0.00,,---,0.00,171.00,VWS V14.01,2013-02-17 21:15:00,
2013-02-17 16:20:00,22.6,11.6,30.18,West,269,6.0,13.0,62,0.00,,---,0.00,139.00,VWS V14.01,2013-02-17 21:20:00,
2013-02-17 16:25:00,22.5,11.1,30.18,WNW,283,6.0,13.0,61,0.00,,---,0.00,125.00,VWS V14.01,2013-02-17 21:25:00,
2013-02-17 16:30:00,22.5,11.1,30.18,West,277,4.0,13.0,61,0.00,,---,0.00,113.00,VWS V14.01,2013-02-17 21:30:00,
2013-02-17 16:35:00,22.5,11.5,30.19,WNW,282,10.0,10.0,62,0.00,,---,0.00,105.00,VWS V14.01,2013-02-17 21:35:00,
2013-02-17 16:40:00,22.5,11.5,30.19,NW,317,11.0,13.0,62,0.00,,---,0.00,102.00,VWS V14.01,2013-02-17 21:40:00,
2013-02-17 16:45:00,22.3,11.3,30.19,NW,309,10.0,13.0,62,0.00,,---,0.00,88.00,VWS V14.01,2013-02-17 21:45:00,
2013-02-17 16:50:00,22.3,11.3,30.19,West,263,8.0,13.0,62,0.00,,---,0.00,83.00,VWS V14.01,2013-02-17 21:50:00,
2013-02-17 16:55:00,22.3,11.3,30.19,WNW,300,3.0,13.0,62,0.00,,---,0.00,72.00,VWS V14.01,2013-02-17 21:55:00,
2013-02-17 17:00:00,22.3,11.3,30.19,NW,312,6.0,13.0,62,0.00,,---,0.00,56.00,VWS V14.01,2013-02-17 22:00:00,
2013-02-17 17:05:00,22.3,10.9,30.19,WNW,292,10.0,12.0,61,0.00,,---,0.00,56.00,VWS V14.01,2013-02-17 22:05:00,
2013-02-17 17:10:00,22.3,10.9,30.20,NW,304,5.0,13.0,61,0.00,,---,0.00,54.00,VWS V14.01,2013-02-17 22:10:00,
2013-02-17 17:15:00,22.3,10.9,30.20,NW,312,5.0,13.0,61,0.00,,---,0.00,44.00,VWS V14.01,2013-02-17 22:15:00,
2013-02-17 17:20:00,22.3,11.3,30.20,WNW,293,4.0,13.0,62,0.00,,---,0.00,35.00,VWS V14.01,2013-02-17 22:20:00,
2013-02-17 17:25:00,22.4,11.4,30.20,WNW,293,3.0,13.0,62,0.00,,---,0.00,35.00,VWS V14.01,2013-02-17 22:25:00,
2013-02-17 17:30:00,22.3,11.3,30.20,WNW,286,6.0,13.0,62,0.00,,---,0.00,33.00,VWS V14.01,2013-02-17 22:30:00,
2013-02-17 17:35:00,22.3,11.3,30.20,WNW,301,4.0,12.0,62,0.00,,---,0.00,26.00,VWS V14.01,2013-02-17 22:35:00,
2013-02-17 17:40:00,22.2,11.2,30.20,NW,306,5.0,12.0,62,0.00,,---,0.00,21.00,VWS V14.01,2013-02-17 22:40:00,
2013-02-17 17:45:00,22.2,11.5,30.20,WNW,290,3.0,12.0,63,0.00,,---,0.00,18.00,VWS V14.01,2013-02-17 22:45:00,
2013-02-17 17:50:00,22.2,11.5,30.20,NW,304,6.0,12.0,63,0.00,,---,0.00,16.00,VWS V14.01,2013-02-17 22:50:00,
2013-02-17 17:55:00,22.1,11.4,30.21,NW,325,2.0,12.0,63,0.00,,---,0.00,12.00,VWS V14.01,2013-02-17 22:55:00,
2013-02-17 18:00:00,22.0,11.7,30.21,NW,319,2.0,3.0,64,0.00,,---,0.00,7.00,VWS V14.01,2013-02-17 23:00:00,
2013-02-17 18:05:00,21.9,11.6,30.21,NW,323,0.0,5.0,64,0.00,,---,0.00,0.00,VWS V14.01,2013-02-17 23:05:00,
2013-02-17 18:10:00,21.9,11.6,30.21,WNW,301,2.0,5.0,64,0.00,,---,0.00,0.00,VWS V14.01,2013-02-17 23:10:00,
2013-02-17 18:15:00,21.8,11.5,30.21,NW,309,5.0,9.0,64,0.00,,---,0.00,0.00,VWS V14.01,2013-02-17 23:15:00,
2013-02-17 18:20:00,21.7,11.1,30.21,WNW,302,4.0,9.0,63,0.00,,---,0.00,0.00,VWS V14.01,2013-02-17 23:20:00,
2013-02-17 18:25:00,21.7,11.1,30.22,WNW,296,3.0,9.0,63,0.00,,---,0.00,0.00,VWS V14.01,2013-02-17 23:25:00,
2013-02-17 18:30:00,21.6,11.3,30.22,WNW,296,2.0,3.0,64,0.00,,---,0.00,0.00,VWS V14.01,2013-02-17 23:30:00,
2013-02-17 18:35:00,21.6,11.3,30.21,WNW,297,3.0,4.0,64,0.00,,---,0.00,0.00,VWS V14.01,2013-02-17 23:35:00,
2013-02-17 18:40:00,21.5,11.2,30.22,WNW,297,0.0,4.0,64,0.00,,---,0.00,0.00,VWS V14.01,2013-02-17 23:40:00,
2013-02-17 18:45:00,21.3,11.4,30.22,WNW,297,0.0,4.0,65,0.00,,---,0.00,0.00,VWS V14.01,2013-02-17 23:45:00,
2013-02-17 18:50:00,21.2,11.3,30.22,WNW,297,0.0,4.0,65,0.00,,---,0.00,0.00,VWS V14.01,2013-02-17 23:50:00,
2013-02-17 18:55:00,21.1,11.2,30.22,WNW,297,0.0,4.0,65,0.00,,---,0.00,0.00,VWS V14.01,2013-02-17 23:55:00,
2013-02-17 19:00:00,20.9,11.0,30.22,WNW,297,0.0,0.0,65,0.00,,---,0.00,0.00,VWS V14.01,2013-02-18 00:00:00,
2013-02-17 19:05:00,20.7,10.8,30.22,WNW,297,0.0,0.0,65,0.00,,---,0.00,0.00,VWS V14.01,2013-02-18 00:05:00,
2013-02-17 19:10:00,20.5,10.6,30.22,WNW,297,0.0,0.0,65,0.00,,---,0.00,0.00,VWS V14.01,2013-02-18 00:10:00,
2013-02-17 19:15:00,20.2,10.3,30.22,WNW,297,0.0,0.0,65,0.00,,---,0.00,0.00,VWS V14.01,2013-02-18 00:15:00,
2013-02-17 19:21:00,19.9,10.1,30.22,WNW,297,0.0,0.0,65,0.00,,---,0.00,0.00,VWS V14.01,2013-02-18 00:21:00,
2013-02-17 19:26:00,19.6,10.1,30.22,WNW,297,0.0,1.0,66,0.00,,---,0.00,0.00,VWS V14.01,2013-02-18 00:26:00,
2013-02-17 19:30:00,17.6,9.5,30.23,WNW,297,0.0,1.0,70,0.00,,---,0.00,0.00,VWS V14.01,2013-02-18 00:30:00,
2013-02-17 19:31:00,19.4,10.2,30.22,WNW,297,0.0,0.0,67,0.00,,---,0.00,0.00,VWS V14.01,2013-02-18 00:31:00,
2013-02-17 19:36:00,19.1,10.0,30.22,WNW,297,0.0,0.0,67,0.00,,---,0.00,0.00,VWS V14.01,2013-02-18 00:36:00,
2013-02-17 19:41:00,18.9,9.8,30.22,WNW,297,0.0,1.0,67,0.00,,---,0.00,0.00,VWS V14.01,2013-02-18 00:41:00,
2013-02-17 19:46:00,18.8,9.7,30.22,WNW,297,0.0,1.0,67,0.00,,---,0.00,0.00,VWS V14.01,2013-02-18 00:46:00,
2013-02-17 19:51:00,18.7,9.6,30.23,WNW,297,0.0,1.0,67,0.00,,---,0.00,0.00,VWS V14.01,2013-02-18 00:51:00,
2013-02-17 19:56:00,18.6,9.8,30.23,WNW,297,0.0,1.0,68,0.00,,---,0.00,0.00,VWS V14.01,2013-02-18 00:56:00,
2013-02-17 20:00:00,16.9,9.4,30.23,WNW,297,0.0,1.0,72,0.00,,---,0.00,0.00,VWS V14.01,2013-02-18 01:00:00,
2013-02-17 20:01:00,18.5,9.7,30.23,WNW,297,0.0,0.0,68,0.00,,---,0.00,0.00,VWS V14.01,2013-02-18 01:01:00,
2013-02-17 20:06:00,18.4,9.6,30.23,WNW,297,0.0,1.0,68,0.00,,---,0.00,0.00,VWS V14.01,2013-02-18 01:06:00,
2013-02-17 20:11:00,18.2,9.8,30.23,WNW,297,0.0,1.0,69,0.00,,---,0.00,0.00,VWS V14.01,2013-02-18 01:11:00,
2013-02-17 20:16:00,18.0,9.6,30.23,WNW,297,0.0,1.0,69,0.00,,---,0.00,0.00,VWS V14.01,2013-02-18 01:16:00,
2013-02-17 20:21:00,17.9,9.5,30.23,WNW,297,0.0,1.0,69,0.00,,---,0.00,0.00,VWS V14.01,2013-02-18 01:21:00,
2013-02-17 20:26:00,17.7,9.3,30.23,WNW,297,0.0,1.0,69,0.00,,---,0.00,0.00,VWS V14.01,2013-02-18 01:26:00,
2013-02-17 20:30:00,16.1,9.6,30.24,WNW,297,0.0,1.0,75,0.00,,---,0.00,0.00,VWS V14.01,2013-02-18 01:30:00,
2013-02-17 20:31:00,17.6,11.6,30.23,WNW,297,0.0,0.0,77,0.00,,---,0.00,0.00,VWS V14.01,2013-02-18 01:31:00,
2013-02-17 20:36:00,17.4,9.6,30.24,WNW,297,0.0,1.0,71,0.00,,---,0.00,0.00,VWS V14.01,2013-02-18 01:36:00,
2013-02-17 20:41:00,17.3,9.5,30.23,WNW,297,0.0,1.0,71,0.00,,---,0.00,0.00,VWS V14.01,2013-02-18 01:41:00,
2013-02-17 20:46:00,17.1,9.6,30.23,WNW,297,0.0,1.0,72,0.00,,---,0.00,0.00,VWS V14.01,2013-02-18 01:46:00,
2013-02-17 20:51:00,17.0,9.6,30.23,WNW,297,0.0,1.0,72,0.00,,---,0.00,0.00,VWS V14.01,2013-02-18 01:51:00,
2013-02-17 20:56:00,17.0,9.6,30.23,WNW,297,0.0,1.0,72,0.00,,---,0.00,0.00,VWS V14.01,2013-02-18 01:56:00,
2013-02-17 21:00:00,15.0,9.7,30.24,WNW,297,1.0,2.0,79,0.00,,---,0.00,0.00,VWS V14.01,2013-02-18 02:00:00,
2013-02-17 21:01:00,16.9,9.8,30.23,WNW,297,0.0,1.0,73,0.00,,---,0.00,0.00,VWS V14.01,2013-02-18 02:01:00,
2013-02-17 21:06:00,16.8,9.7,30.23,WNW,297,0.0,1.0,73,0.00,,---,0.00,0.00,VWS V14.01,2013-02-18 02:06:00,
2013-02-17 21:11:00,16.7,9.6,30.23,WNW,297,0.0,1.0,73,0.00,,---,0.00,0.00,VWS V14.01,2013-02-18 02:11:00,
2013-02-17 21:16:00,16.6,9.5,30.23,WNW,297,0.0,1.0,73,0.00,,---,0.00,0.00,VWS V14.01,2013-02-18 02:16:00,
2013-02-17 21:21:00,16.4,9.3,30.24,WNW,297,0.0,1.0,73,0.00,,---,0.00,0.00,VWS V14.01,2013-02-18 02:21:00,
2013-02-17 21:26:00,16.2,9.4,30.24,WNW,297,0.0,1.0,74,0.00,,---,0.00,0.00,VWS V14.01,2013-02-18 02:26:00,
2013-02-17 21:30:00,14.1,9.1,30.25,WNW,297,0.0,3.0,80,0.00,,---,0.00,0.00,VWS V14.01,2013-02-18 02:30:00,
2013-02-17 21:31:00,16.1,9.6,30.24,WNW,297,0.0,0.0,75,0.00,,---,0.00,0.00,VWS V14.01,2013-02-18 02:31:00,
2013-02-17 21:36:00,15.8,9.6,30.24,WNW,297,0.0,0.0,76,0.00,,---,0.00,0.00,VWS V14.01,2013-02-18 02:36:00,
2013-02-17 21:41:00,15.6,9.4,30.24,WNW,297,2.0,2.0,76,0.00,,---,0.00,0.00,VWS V14.01,2013-02-18 02:41:00,
2013-02-17 21:46:00,15.4,9.5,30.24,WNW,297,1.0,2.0,77,0.00,,---,0.00,0.00,VWS V14.01,2013-02-18 02:46:00,
2013-02-17 21:51:00,15.3,9.7,30.24,WNW,297,0.0,2.0,78,0.00,,---,0.00,0.00,VWS V14.01,2013-02-18 02:51:00,
2013-02-17 21:56:00,15.1,9.5,30.24,WNW,297,0.0,2.0,78,0.00,,---,0.00,0.00,VWS V14.01,2013-02-18 02:56:00,
2013-02-17 22:00:00,14.1,9.6,30.25,WNW,297,0.0,2.0,82,0.00,,---,0.00,0.00,VWS V14.01,2013-02-18 03:00:00,
2013-02-17 22:01:00,14.9,9.6,30.24,WNW,297,2.0,2.0,79,0.00,,---,0.00,0.00,VWS V14.01,2013-02-18 03:01:00,
2013-02-17 22:06:00,14.7,9.4,30.24,WNW,297,0.0,3.0,79,0.00,,---,0.00,0.00,VWS V14.01,2013-02-18 03:06:00,
2013-02-17 22:11:00,14.6,9.3,30.24,WNW,297,0.0,3.0,79,0.00,,---,0.00,0.00,VWS V14.01,2013-02-18 03:11:00,
2013-02-17 22:16:00,14.5,9.2,30.24,WNW,297,0.0,3.0,79,0.00,,---,0.00,0.00,VWS V14.01,2013-02-18 03:16:00,
2013-02-17 22:21:00,14.4,9.4,30.24,WNW,297,0.0,3.0,80,0.00,,---,0.00,0.00,VWS V14.01,2013-02-18 03:21:00,
2013-02-17 22:26:00,14.2,9.2,30.25,WNW,297,0.0,3.0,80,0.00,,---,0.00,0.00,VWS V14.01,2013-02-18 03:26:00,
2013-02-17 22:30:00,14.9,9.9,30.24,WNW,297,0.0,2.0,80,0.00,,---,0.00,0.00,VWS V14.01,2013-02-18 03:30:00,
2013-02-17 22:31:00,14.0,9.3,30.24,WNW,297,0.0,0.0,81,0.00,,---,0.00,0.00,VWS V14.01,2013-02-18 03:31:00,
2013-02-17 22:36:00,13.9,9.2,30.25,WNW,297,2.0,2.0,81,0.00,,---,0.00,0.00,VWS V14.01,2013-02-18 03:36:00,
2013-02-17 22:41:00,13.9,9.2,30.25,WNW,297,0.0,2.0,81,0.00,,---,0.00,0.00,VWS V14.01,2013-02-18 03:41:00,
2013-02-17 22:46:00,13.9,9.2,30.24,WNW,297,2.0,2.0,81,0.00,,---,0.00,0.00,VWS V14.01,2013-02-18 03:46:00,
2013-02-17 22:51:00,14.0,9.3,30.25,WNW,297,1.0,2.0,81,0.00,,---,0.00,0.00,VWS V14.01,2013-02-18 03:51:00,
2013-02-17 22:56:00,14.0,9.3,30.25,WNW,297,1.0,2.0,81,0.00,,---,0.00,0.00,VWS V14.01,2013-02-18 03:56:00,
2013-02-17 23:00:00,15.8,10.2,30.24,WNW,292,0.0,3.0,78,0.00,,---,0.00,0.00,VWS V14.01,2013-02-18 04:00:00,
2013-02-17 23:01:00,14.1,9.6,30.24,WNW,297,1.0,1.0,82,0.00,,---,0.00,0.00,VWS V14.01,2013-02-18 04:01:00,
2013-02-17 23:06:00,14.3,9.6,30.24,WNW,297,0.0,2.0,81,0.00,,---,0.00,0.00,VWS V14.01,2013-02-18 04:06:00,
2013-02-17 23:11:00,14.5,9.7,30.24,WNW,297,0.0,2.0,81,0.00,,---,0.00,0.00,VWS V14.01,2013-02-18 04:11:00,
2013-02-17 23:16:00,14.6,9.8,30.24,WNW,297,0.0,2.0,81,0.00,,---,0.00,0.00,VWS V14.01,2013-02-18 04:16:00,
2013-02-17 23:21:00,14.8,9.8,30.24,WNW,297,0.0,2.0,80,0.00,,---,0.00,0.00,VWS V14.01,2013-02-18 04:21:00,
2013-02-17 23:26:00,14.8,9.8,30.24,WNW,297,1.0,2.0,80,0.00,,---,0.00,0.00,VWS V14.01,2013-02-18 04:26:00,
2013-02-17 23:30:00,14.5,8.9,30.26,WNW,292,0.0,1.0,78,0.00,,---,0.00,0.00,VWS V14.01,2013-02-18 04:30:00,
2013-02-17 23:31:00,14.9,9.9,30.24,WNW,297,0.0,0.0,80,0.00,,---,0.00,0.00,VWS V14.01,2013-02-18 04:31:00,
2013-02-17 23:36:00,15.0,10.0,30.24,WNW,297,0.0,2.0,80,0.00,,---,0.00,0.00,VWS V14.01,2013-02-18 04:36:00,
2013-02-17 23:41:00,15.3,10.0,30.24,WNW,294,0.0,2.0,79,0.00,,---,0.00,0.00,VWS V14.01,2013-02-18 04:41:00,
2013-02-17 23:46:00,15.5,10.2,30.24,WNW,294,0.0,2.0,79,0.00,,---,0.00,0.00,VWS V14.01,2013-02-18 04:46:00,
2013-02-17 23:51:00,15.7,10.1,30.24,WNW,294,0.0,2.0,78,0.00,,---,0.00,0.00,VWS V14.01,2013-02-18 04:51:00,
2013-02-17 23:56:00,15.7,10.1,30.24,WNW,292,3.0,3.0,78,0.00,,---,0.00,0.00,VWS V14.01,2013-02-18 04:56:00,